sensor_id;sensor_type;location;lat;lon;timestamp;pressure;altitude;pressure_sealevel;temperature;humidity
77979;BME280;67169;50.268;8.694;2024-01-11T00:00:39;100982.31;;;-7.40;93.30
77979;BME280;67169;50.268;8.694;2024-01-11T00:03:07;100986.22;;;-7.48;93.35
77979;BME280;67169;50.268;8.694;2024-01-11T00:05:34;100994.91;;;-7.49;93.19
77979;BME280;67169;50.268;8.694;2024-01-11T00:08:01;100975.13;;;-7.77;93.24
77979;BME280;67169;50.268;8.694;2024-01-11T00:10:28;100986.03;;;-7.68;93.27
77979;BME280;67169;50.268;8.694;2024-01-11T00:12:55;101004.84;;;-7.58;93.48
77979;BME280;67169;50.268;8.694;2024-01-11T00:15:21;101002.22;;;-7.58;93.35
77979;BME280;67169;50.268;8.694;2024-01-11T00:17:48;100994.56;;;-7.55;93.60
77979;BME280;67169;50.268;8.694;2024-01-11T00:20:16;100989.34;;;-7.39;93.67
77979;BME280;67169;50.268;8.694;2024-01-11T00:22:43;100998.66;;;-7.11;93.88
77979;BME280;67169;50.268;8.694;2024-01-11T00:25:09;100989.53;;;-6.85;93.78
77979;BME280;67169;50.268;8.694;2024-01-11T00:27:36;100970.28;;;-6.70;93.43
77979;BME280;67169;50.268;8.694;2024-01-11T00:30:03;100957.97;;;-6.54;93.29
77979;BME280;67169;50.268;8.694;2024-01-11T00:32:30;100978.63;;;-6.25;92.87
77979;BME280;67169;50.268;8.694;2024-01-11T00:34:57;100983.53;;;-6.13;92.45
77979;BME280;67169;50.268;8.694;2024-01-11T00:37:25;100981.59;;;-5.99;92.29
77979;BME280;67169;50.268;8.694;2024-01-11T00:39:51;100983.13;;;-5.85;91.45
77979;BME280;67169;50.268;8.694;2024-01-11T00:42:18;100976.13;;;-5.66;91.30
77979;BME280;67169;50.268;8.694;2024-01-11T00:44:45;100969.50;;;-5.58;90.68
77979;BME280;67169;50.268;8.694;2024-01-11T00:47:11;100949.78;;;-5.50;90.17
77979;BME280;67169;50.268;8.694;2024-01-11T00:49:38;100967.31;;;-5.30;89.75
77979;BME280;67169;50.268;8.694;2024-01-11T00:52:05;100960.97;;;-5.15;89.02
77979;BME280;67169;50.268;8.694;2024-01-11T00:54:33;100948.00;;;-5.32;88.67
77979;BME280;67169;50.268;8.694;2024-01-11T00:56:59;100974.63;;;-5.22;88.12
77979;BME280;67169;50.268;8.694;2024-01-11T00:59:26;100967.50;;;-5.25;87.61
77979;BME280;67169;50.268;8.694;2024-01-11T01:01:52;100941.63;;;-5.37;87.63
77979;BME280;67169;50.268;8.694;2024-01-11T01:04:19;100969.38;;;-5.22;87.14
77979;BME280;67169;50.268;8.694;2024-01-11T01:06:45;100948.97;;;-5.30;86.87
77979;BME280;67169;50.268;8.694;2024-01-11T01:09:12;100960.81;;;-5.18;86.59
77979;BME280;67169;50.268;8.694;2024-01-11T01:11:41;100963.03;;;-5.08;86.51
77979;BME280;67169;50.268;8.694;2024-01-11T01:14:08;100950.84;;;-5.06;86.13
77979;BME280;67169;50.268;8.694;2024-01-11T01:16:34;100936.78;;;-5.08;85.94
77979;BME280;67169;50.268;8.694;2024-01-11T01:19:01;100940.59;;;-5.02;85.47
77979;BME280;67169;50.268;8.694;2024-01-11T01:21:27;100938.56;;;-5.07;85.26
77979;BME280;67169;50.268;8.694;2024-01-11T01:23:54;100942.94;;;-5.08;84.95
77979;BME280;67169;50.268;8.694;2024-01-11T01:26:21;100941.75;;;-5.14;84.91
77979;BME280;67169;50.268;8.694;2024-01-11T01:28:48;100948.94;;;-5.10;84.58
77979;BME280;67169;50.268;8.694;2024-01-11T01:31:15;100949.63;;;-5.14;84.58
77979;BME280;67169;50.268;8.694;2024-01-11T01:33:42;100953.00;;;-5.17;84.50
77979;BME280;67169;50.268;8.694;2024-01-11T01:36:09;100962.75;;;-5.14;84.37
77979;BME280;67169;50.268;8.694;2024-01-11T01:38:36;100971.03;;;-5.25;84.76
77979;BME280;67169;50.268;8.694;2024-01-11T01:41:03;100970.00;;;-5.09;84.61
77979;BME280;67169;50.268;8.694;2024-01-11T01:43:29;100963.16;;;-5.25;84.59
77979;BME280;67169;50.268;8.694;2024-01-11T01:45:58;100973.66;;;-5.25;84.54
77979;BME280;67169;50.268;8.694;2024-01-11T01:48:25;100978.59;;;-5.31;84.67
77979;BME280;67169;50.268;8.694;2024-01-11T01:50:52;100979.31;;;-5.15;84.64
77979;BME280;67169;50.268;8.694;2024-01-11T01:53:19;100978.34;;;-5.17;84.53
77979;BME280;67169;50.268;8.694;2024-01-11T01:55:47;100986.22;;;-5.17;84.46
77979;BME280;67169;50.268;8.694;2024-01-11T01:58:15;100976.28;;;-5.25;84.45
77979;BME280;67169;50.268;8.694;2024-01-11T02:00:44;100976.13;;;-5.28;84.33
77979;BME280;67169;50.268;8.694;2024-01-11T02:03:14;100970.88;;;-5.28;84.21
77979;BME280;67169;50.268;8.694;2024-01-11T02:05:42;100982.06;;;-5.32;84.21
77979;BME280;67169;50.268;8.694;2024-01-11T02:08:13;100979.91;;;-5.40;84.38
77979;BME280;67169;50.268;8.694;2024-01-11T02:10:42;100984.75;;;-5.50;84.52
77979;BME280;67169;50.268;8.694;2024-01-11T02:13:09;100975.72;;;-5.56;84.71
77979;BME280;67169;50.268;8.694;2024-01-11T02:15:36;100979.69;;;-5.64;84.94
77979;BME280;67169;50.268;8.694;2024-01-11T02:18:03;100986.16;;;-5.76;84.92
77979;BME280;67169;50.268;8.694;2024-01-11T02:20:31;100977.47;;;-5.94;85.05
77979;BME280;67169;50.268;8.694;2024-01-11T02:23:01;100963.03;;;-6.04;85.45
77979;BME280;67169;50.268;8.694;2024-01-11T02:25:31;100983.56;;;-5.95;85.72
77979;BME280;67169;50.268;8.694;2024-01-11T02:27:57;100993.19;;;-5.94;85.68
77979;BME280;67169;50.268;8.694;2024-01-11T02:30:24;100997.28;;;-5.99;85.98
77979;BME280;67169;50.268;8.694;2024-01-11T02:32:52;100994.53;;;-6.02;86.30
77979;BME280;67169;50.268;8.694;2024-01-11T02:35:19;100997.75;;;-6.08;86.45
77979;BME280;67169;50.268;8.694;2024-01-11T02:37:46;100978.78;;;-6.22;86.65
77979;BME280;67169;50.268;8.694;2024-01-11T02:40:14;100994.63;;;-6.18;86.72
77979;BME280;67169;50.268;8.694;2024-01-11T02:42:42;100994.94;;;-6.12;86.83
77979;BME280;67169;50.268;8.694;2024-01-11T02:45:10;100993.28;;;-6.28;86.99
77979;BME280;67169;50.268;8.694;2024-01-11T02:47:37;100921.94;;;-6.78;87.08
77979;BME280;67169;50.268;8.694;2024-01-11T02:50:05;100996.31;;;-6.37;87.51
77979;BME280;67169;50.268;8.694;2024-01-11T02:52:32;100989.81;;;-6.45;87.58
77979;BME280;67169;50.268;8.694;2024-01-11T02:54:59;100990.28;;;-6.54;87.89
77979;BME280;67169;50.268;8.694;2024-01-11T02:57:25;100983.84;;;-6.60;87.96
77979;BME280;67169;50.268;8.694;2024-01-11T02:59:53;100980.66;;;-6.71;88.23
77979;BME280;67169;50.268;8.694;2024-01-11T03:02:20;100978.88;;;-6.72;88.40
77979;BME280;67169;50.268;8.694;2024-01-11T03:04:47;100978.72;;;-6.75;88.65
77979;BME280;67169;50.268;8.694;2024-01-11T03:07:14;100974.09;;;-6.81;88.79
77979;BME280;67169;50.268;8.694;2024-01-11T03:09:40;100953.69;;;-7.04;88.75
77979;BME280;67169;50.268;8.694;2024-01-11T03:12:07;100961.72;;;-7.01;88.97
77979;BME280;67169;50.268;8.694;2024-01-11T03:14:33;100954.03;;;-6.98;89.40
77979;BME280;67169;50.268;8.694;2024-01-11T03:17:01;100974.66;;;-6.86;89.32
77979;BME280;67169;50.268;8.694;2024-01-11T03:19:28;100967.03;;;-6.82;89.36
77979;BME280;67169;50.268;8.694;2024-01-11T03:21:54;100970.34;;;-6.68;89.40
77979;BME280;67169;50.268;8.694;2024-01-11T03:24:21;100973.25;;;-6.80;89.37
77979;BME280;67169;50.268;8.694;2024-01-11T03:26:48;100979.94;;;-6.85;89.25
77979;BME280;67169;50.268;8.694;2024-01-11T03:29:14;100914.19;;;-7.27;89.10
77979;BME280;67169;50.268;8.694;2024-01-11T03:31:41;100972.31;;;-6.98;89.38
77979;BME280;67169;50.268;8.694;2024-01-11T03:34:11;100979.84;;;-7.04;89.55
77979;BME280;67169;50.268;8.694;2024-01-11T03:36:38;100987.19;;;-7.13;89.46
77979;BME280;67169;50.268;8.694;2024-01-11T03:39:05;100991.31;;;-7.19;89.66
77979;BME280;67169;50.268;8.694;2024-01-11T03:41:31;100985.41;;;-7.31;89.88
77979;BME280;67169;50.268;8.694;2024-01-11T03:43:58;100995.31;;;-7.25;90.05
77979;BME280;67169;50.268;8.694;2024-01-11T03:46:25;100971.22;;;-7.36;90.36
77979;BME280;67169;50.268;8.694;2024-01-11T03:48:51;100986.47;;;-7.27;90.56
77979;BME280;67169;50.268;8.694;2024-01-11T03:51:19;100986.97;;;-7.18;90.77
77979;BME280;67169;50.268;8.694;2024-01-11T03:53:46;100982.63;;;-7.18;90.66
77979;BME280;67169;50.268;8.694;2024-01-11T03:56:12;100987.44;;;-7.09;90.75
77979;BME280;67169;50.268;8.694;2024-01-11T03:58:39;100998.47;;;-6.98;90.91
77979;BME280;67169;50.268;8.694;2024-01-11T04:01:07;100987.34;;;-6.94;90.95
77979;BME280;67169;50.268;8.694;2024-01-11T04:03:35;100935.25;;;-7.24;90.93
77979;BME280;67169;50.268;8.694;2024-01-11T04:06:02;100992.41;;;-6.97;90.90
77979;BME280;67169;50.268;8.694;2024-01-11T04:08:30;100950.22;;;-7.21;90.61
77979;BME280;67169;50.268;8.694;2024-01-11T04:10:56;100999.09;;;-7.02;90.65
77979;BME280;67169;50.268;8.694;2024-01-11T04:13:23;100986.47;;;-7.11;90.53
77979;BME280;67169;50.268;8.694;2024-01-11T04:15:50;100993.25;;;-7.14;90.85
77979;BME280;67169;50.268;8.694;2024-01-11T04:18:17;100987.03;;;-7.17;90.89
77979;BME280;67169;50.268;8.694;2024-01-11T04:20:43;100983.31;;;-7.22;90.62
77979;BME280;67169;50.268;8.694;2024-01-11T04:23:10;101003.53;;;-7.18;90.77
77979;BME280;67169;50.268;8.694;2024-01-11T04:25:38;101014.00;;;-7.18;91.00
77979;BME280;67169;50.268;8.694;2024-01-11T04:28:05;101018.25;;;-7.20;90.90
77979;BME280;67169;50.268;8.694;2024-01-11T04:30:31;101005.84;;;-7.24;91.00
77979;BME280;67169;50.268;8.694;2024-01-11T04:32:58;101013.50;;;-7.27;91.08
77979;BME280;67169;50.268;8.694;2024-01-11T04:35:25;101016.88;;;-7.29;91.38
77979;BME280;67169;50.268;8.694;2024-01-11T04:37:51;101017.66;;;-7.30;91.50
77979;BME280;67169;50.268;8.694;2024-01-11T04:40:18;101022.91;;;-7.30;91.22
77979;BME280;67169;50.268;8.694;2024-01-11T04:42:46;101008.88;;;-7.32;91.29
77979;BME280;67169;50.268;8.694;2024-01-11T04:45:13;101022.16;;;-7.28;91.36
77979;BME280;67169;50.268;8.694;2024-01-11T04:47:39;101024.78;;;-7.28;91.29
77979;BME280;67169;50.268;8.694;2024-01-11T04:50:07;100950.66;;;-7.62;91.04
77979;BME280;67169;50.268;8.694;2024-01-11T04:52:33;101017.44;;;-7.19;91.01
77979;BME280;67169;50.268;8.694;2024-01-11T04:55:00;101022.00;;;-7.14;90.86
77979;BME280;67169;50.268;8.694;2024-01-11T04:57:27;101022.91;;;-7.14;90.67
77979;BME280;67169;50.268;8.694;2024-01-11T04:59:55;101015.94;;;-7.13;90.70
77979;BME280;67169;50.268;8.694;2024-01-11T05:02:21;101008.44;;;-7.24;90.54
77979;BME280;67169;50.268;8.694;2024-01-11T05:04:48;101024.28;;;-7.21;90.46
77979;BME280;67169;50.268;8.694;2024-01-11T05:07:14;101007.81;;;-7.36;90.27
77979;BME280;67169;50.268;8.694;2024-01-11T05:09:41;101014.81;;;-7.35;90.56
77979;BME280;67169;50.268;8.694;2024-01-11T05:12:08;101011.22;;;-7.37;90.46
77979;BME280;67169;50.268;8.694;2024-01-11T05:14:34;101013.81;;;-7.37;90.63
77979;BME280;67169;50.268;8.694;2024-01-11T05:17:02;100993.06;;;-7.50;90.59
77979;BME280;67169;50.268;8.694;2024-01-11T05:19:29;101009.97;;;-7.44;90.48
77979;BME280;67169;50.268;8.694;2024-01-11T05:21:56;101024.09;;;-7.40;90.45
77979;BME280;67169;50.268;8.694;2024-01-11T05:24:22;101026.22;;;-7.33;90.64
77979;BME280;67169;50.268;8.694;2024-01-11T05:26:49;101018.66;;;-7.45;90.53
77979;BME280;67169;50.268;8.694;2024-01-11T05:29:15;101021.66;;;-7.37;90.52
77979;BME280;67169;50.268;8.694;2024-01-11T05:31:42;101020.03;;;-7.35;90.54
77979;BME280;67169;50.268;8.694;2024-01-11T05:34:10;100995.53;;;-7.37;90.39
77979;BME280;67169;50.268;8.694;2024-01-11T05:36:38;101016.84;;;-7.13;90.46
77979;BME280;67169;50.268;8.694;2024-01-11T05:39:04;101022.06;;;-6.97;90.30
77979;BME280;67169;50.268;8.694;2024-01-11T05:41:31;101018.22;;;-6.87;90.09
77979;BME280;67169;50.268;8.694;2024-01-11T05:43:57;101014.38;;;-6.94;89.69
77979;BME280;67169;50.268;8.694;2024-01-11T05:46:24;101029.19;;;-6.78;89.49
77979;BME280;67169;50.268;8.694;2024-01-11T05:48:51;101013.50;;;-6.60;89.44
77979;BME280;67169;50.268;8.694;2024-01-11T05:51:19;101038.19;;;-6.55;88.83
77979;BME280;67169;50.268;8.694;2024-01-11T05:53:45;101032.88;;;-6.56;88.61
77979;BME280;67169;50.268;8.694;2024-01-11T05:56:12;101032.03;;;-6.55;88.56
77979;BME280;67169;50.268;8.694;2024-01-11T05:58:39;101034.88;;;-6.51;88.62
77979;BME280;67169;50.268;8.694;2024-01-11T06:01:05;101044.78;;;-6.45;88.28
77979;BME280;67169;50.268;8.694;2024-01-11T06:03:32;101051.16;;;-6.40;88.34
77979;BME280;67169;50.268;8.694;2024-01-11T06:05:59;101057.34;;;-6.38;88.15
77979;BME280;67169;50.268;8.694;2024-01-11T06:08:29;101029.56;;;-6.36;87.60
77979;BME280;67169;50.268;8.694;2024-01-11T06:10:55;101040.44;;;-6.45;87.52
77979;BME280;67169;50.268;8.694;2024-01-11T06:13:22;101056.25;;;-6.43;87.10
77979;BME280;67169;50.268;8.694;2024-01-11T06:15:48;101067.00;;;-6.37;87.27
77979;BME280;67169;50.268;8.694;2024-01-11T06:18:16;101066.63;;;-6.27;86.99
77979;BME280;67169;50.268;8.694;2024-01-11T06:20:42;101076.31;;;-6.26;86.89
77979;BME280;67169;50.268;8.694;2024-01-11T06:23:09;101067.31;;;-6.31;87.01
77979;BME280;67169;50.268;8.694;2024-01-11T06:25:37;101044.63;;;-6.48;86.85
77979;BME280;67169;50.268;8.694;2024-01-11T06:28:04;101083.19;;;-6.44;86.84
77979;BME280;67169;50.268;8.694;2024-01-11T06:30:32;101070.13;;;-6.44;86.55
77979;BME280;67169;50.268;8.694;2024-01-11T06:32:59;101077.97;;;-6.44;86.65
77979;BME280;67169;50.268;8.694;2024-01-11T06:35:25;101079.31;;;-6.52;86.69
77979;BME280;67169;50.268;8.694;2024-01-11T06:37:52;101076.22;;;-6.61;86.68
77979;BME280;67169;50.268;8.694;2024-01-11T06:40:18;101077.75;;;-6.65;86.79
77979;BME280;67169;50.268;8.694;2024-01-11T06:42:47;101081.88;;;-6.70;86.87
77979;BME280;67169;50.268;8.694;2024-01-11T06:45:13;101082.44;;;-6.76;86.85
77979;BME280;67169;50.268;8.694;2024-01-11T06:47:40;101087.34;;;-6.82;87.12
77979;BME280;67169;50.268;8.694;2024-01-11T06:50:07;101082.03;;;-6.83;87.08
77979;BME280;67169;50.268;8.694;2024-01-11T06:52:34;101084.81;;;-6.80;87.17
77979;BME280;67169;50.268;8.694;2024-01-11T06:55:01;101085.72;;;-6.80;87.36
77979;BME280;67169;50.268;8.694;2024-01-11T06:57:28;101088.00;;;-6.86;87.36
77979;BME280;67169;50.268;8.694;2024-01-11T06:59:56;101062.03;;;-7.15;87.30
77979;BME280;67169;50.268;8.694;2024-01-11T07:02:22;101098.00;;;-7.11;87.48
77979;BME280;67169;50.268;8.694;2024-01-11T07:04:49;101104.31;;;-7.23;87.55
77979;BME280;67169;50.268;8.694;2024-01-11T07:07:15;101116.66;;;-7.20;87.62
77979;BME280;67169;50.268;8.694;2024-01-11T07:09:42;101090.34;;;-7.39;87.96
77979;BME280;67169;50.268;8.694;2024-01-11T07:12:09;101109.41;;;-7.26;88.07
77979;BME280;67169;50.268;8.694;2024-01-11T07:14:36;101103.50;;;-7.38;87.94
77979;BME280;67169;50.268;8.694;2024-01-11T07:17:04;101121.06;;;-7.35;88.00
77979;BME280;67169;50.268;8.694;2024-01-11T07:19:31;101096.50;;;-7.54;87.80
77979;BME280;67169;50.268;8.694;2024-01-11T07:21:57;101129.09;;;-7.47;88.28
77979;BME280;67169;50.268;8.694;2024-01-11T07:24:24;101125.16;;;-7.55;88.41
77979;BME280;67169;50.268;8.694;2024-01-11T07:26:51;101112.75;;;-7.59;88.42
77979;BME280;67169;50.268;8.694;2024-01-11T07:29:18;101112.75;;;-7.59;88.86
77979;BME280;67169;50.268;8.694;2024-01-11T07:31:45;101113.91;;;-7.54;88.72
77979;BME280;67169;50.268;8.694;2024-01-11T07:34:13;101087.22;;;-7.80;88.98
77979;BME280;67169;50.268;8.694;2024-01-11T07:36:40;101116.03;;;-7.63;88.96
77979;BME280;67169;50.268;8.694;2024-01-11T07:39:06;101108.25;;;-7.62;89.21
77979;BME280;67169;50.268;8.694;2024-01-11T07:41:33;101095.97;;;-7.48;89.17
77979;BME280;67169;50.268;8.694;2024-01-11T07:43:59;101089.91;;;-7.63;89.27
77979;BME280;67169;50.268;8.694;2024-01-11T07:46:26;101092.88;;;-7.41;89.68
77979;BME280;67169;50.268;8.694;2024-01-11T07:48:53;101086.44;;;-7.31;89.42
77979;BME280;67169;50.268;8.694;2024-01-11T07:51:21;101083.69;;;-7.02;89.43
77979;BME280;67169;50.268;8.694;2024-01-11T07:53:48;101094.94;;;-6.54;89.09
77979;BME280;67169;50.268;8.694;2024-01-11T07:56:14;101089.91;;;-6.33;88.41
77979;BME280;67169;50.268;8.694;2024-01-11T07:58:41;101048.06;;;-6.83;88.03
77979;BME280;67169;50.268;8.694;2024-01-11T08:01:09;101092.94;;;-6.41;87.90
77979;BME280;67169;50.268;8.694;2024-01-11T08:03:35;101090.28;;;-5.54;86.80
77979;BME280;67169;50.268;8.694;2024-01-11T08:06:02;101063.16;;;-5.17;85.66
77979;BME280;67169;50.268;8.694;2024-01-11T08:08:30;101057.84;;;-4.80;84.58
77979;BME280;67169;50.268;8.694;2024-01-11T08:10:57;101070.97;;;-4.39;83.61
77979;BME280;67169;50.268;8.694;2024-01-11T08:13:23;101049.91;;;-4.81;82.99
77979;BME280;67169;50.268;8.694;2024-01-11T08:15:50;101068.94;;;-4.25;82.50
77979;BME280;67169;50.268;8.694;2024-01-11T08:18:19;101062.97;;;-3.79;81.52
77979;BME280;67169;50.268;8.694;2024-01-11T08:20:45;101055.41;;;-3.49;79.80
77979;BME280;67169;50.268;8.694;2024-01-11T08:23:13;101053.63;;;-3.50;78.89
77979;BME280;67169;50.268;8.694;2024-01-11T08:25:41;101061.88;;;-2.95;77.37
77979;BME280;67169;50.268;8.694;2024-01-11T08:28:08;101064.88;;;-2.85;76.42
77979;BME280;67169;50.268;8.694;2024-01-11T08:30:34;101070.41;;;-2.54;75.81
77979;BME280;67169;50.268;8.694;2024-01-11T08:33:01;101071.00;;;-2.37;74.41
77979;BME280;67169;50.268;8.694;2024-01-11T08:35:29;101067.78;;;-2.28;73.43
77979;BME280;67169;50.268;8.694;2024-01-11T08:37:57;101087.16;;;-2.01;72.97
77979;BME280;67169;50.268;8.694;2024-01-11T08:40:24;101081.94;;;-1.72;72.47
77979;BME280;67169;50.268;8.694;2024-01-11T08:42:52;101088.06;;;-2.00;71.88
77979;BME280;67169;50.268;8.694;2024-01-11T08:45:18;101080.22;;;-1.72;70.95
77979;BME280;67169;50.268;8.694;2024-01-11T08:47:47;101087.13;;;-1.48;70.72
77979;BME280;67169;50.268;8.694;2024-01-11T08:50:14;101073.81;;;-0.94;70.01
77979;BME280;67169;50.268;8.694;2024-01-11T08:52:41;101073.56;;;-1.03;68.29
77979;BME280;67169;50.268;8.694;2024-01-11T08:55:08;101081.66;;;-0.35;67.59
77979;BME280;67169;50.268;8.694;2024-01-11T08:57:35;101077.09;;;-0.08;66.38
77979;BME280;67169;50.268;8.694;2024-01-11T09:00:04;101076.78;;;-0.20;65.34
77979;BME280;67169;50.268;8.694;2024-01-11T09:02:32;101071.94;;;-0.68;65.25
77979;BME280;67169;50.268;8.694;2024-01-11T09:04:59;101062.22;;;-0.37;65.06
77979;BME280;67169;50.268;8.694;2024-01-11T09:07:25;101055.78;;;-0.14;64.52
77979;BME280;67169;50.268;8.694;2024-01-11T09:09:52;101052.75;;;0.06;64.12
77979;BME280;67169;50.268;8.694;2024-01-11T09:12:19;101048.19;;;0.35;63.50
77979;BME280;67169;50.268;8.694;2024-01-11T09:14:47;101043.88;;;0.38;62.91
77979;BME280;67169;50.268;8.694;2024-01-11T09:17:15;101036.56;;;0.28;62.33
77979;BME280;67169;50.268;8.694;2024-01-11T09:19:41;101036.19;;;0.51;62.26
77979;BME280;67169;50.268;8.694;2024-01-11T09:22:08;101049.75;;;0.64;62.46
77979;BME280;67169;50.268;8.694;2024-01-11T09:24:35;101028.91;;;0.40;61.84
77979;BME280;67169;50.268;8.694;2024-01-11T09:27:02;101048.44;;;0.85;61.60
77979;BME280;67169;50.268;8.694;2024-01-11T09:29:29;101046.97;;;0.99;61.23
77979;BME280;67169;50.268;8.694;2024-01-11T09:31:55;101027.84;;;0.70;61.01
77979;BME280;67169;50.268;8.694;2024-01-11T09:34:23;101062.63;;;1.28;60.95
77979;BME280;67169;50.268;8.694;2024-01-11T09:36:50;101059.84;;;1.67;60.35
77979;BME280;67169;50.268;8.694;2024-01-11T09:39:17;101060.16;;;1.85;59.71
77979;BME280;67169;50.268;8.694;2024-01-11T09:41:51;101049.50;;;1.82;59.24
77979;BME280;67169;50.268;8.694;2024-01-11T09:44:19;101061.22;;;1.95;59.10
77979;BME280;67169;50.268;8.694;2024-01-11T09:46:46;101061.09;;;2.37;58.98
77979;BME280;67169;50.268;8.694;2024-01-11T09:49:13;101045.81;;;2.24;58.51
77979;BME280;67169;50.268;8.694;2024-01-11T09:51:43;101066.41;;;2.41;58.43
77979;BME280;67169;50.268;8.694;2024-01-11T09:54:13;101073.25;;;2.25;58.23
77979;BME280;67169;50.268;8.694;2024-01-11T09:56:42;101064.06;;;2.06;58.50
77979;BME280;67169;50.268;8.694;2024-01-11T09:59:09;101076.50;;;2.07;58.49
77979;BME280;67169;50.268;8.694;2024-01-11T10:01:36;101081.69;;;2.01;58.53
77979;BME280;67169;50.268;8.694;2024-01-11T10:04:03;101073.16;;;2.20;58.49
77979;BME280;67169;50.268;8.694;2024-01-11T10:06:32;101076.19;;;2.43;58.44
77979;BME280;67169;50.268;8.694;2024-01-11T10:09:01;101068.44;;;2.57;58.18
77979;BME280;67169;50.268;8.694;2024-01-11T10:11:28;101069.06;;;2.41;57.96
77979;BME280;67169;50.268;8.694;2024-01-11T10:13:56;101062.16;;;2.50;58.19
77979;BME280;67169;50.268;8.694;2024-01-11T10:16:24;101070.38;;;2.66;58.35
77979;BME280;67169;50.268;8.694;2024-01-11T10:18:53;101059.06;;;2.82;57.94
77979;BME280;67169;50.268;8.694;2024-01-11T10:21:20;101052.03;;;2.85;57.09
77979;BME280;67169;50.268;8.694;2024-01-11T10:23:46;101046.72;;;2.85;57.20
77979;BME280;67169;50.268;8.694;2024-01-11T10:26:17;101045.09;;;2.94;56.98
77979;BME280;67169;50.268;8.694;2024-01-11T10:28:44;101046.16;;;3.06;56.97
77979;BME280;67169;50.268;8.694;2024-01-11T10:31:11;101057.63;;;3.04;56.89
77979;BME280;67169;50.268;8.694;2024-01-11T10:33:37;101048.81;;;3.09;56.81
77979;BME280;67169;50.268;8.694;2024-01-11T10:36:05;101037.59;;;3.33;56.50
77979;BME280;67169;50.268;8.694;2024-01-11T10:38:35;101032.38;;;3.43;55.56
77979;BME280;67169;50.268;8.694;2024-01-11T10:41:04;101029.78;;;3.47;55.10
77979;BME280;67169;50.268;8.694;2024-01-11T10:43:36;101036.78;;;3.38;54.69
77979;BME280;67169;50.268;8.694;2024-01-11T10:46:04;101027.09;;;3.47;54.76
77979;BME280;67169;50.268;8.694;2024-01-11T10:48:35;101017.44;;;3.54;54.81
77979;BME280;67169;50.268;8.694;2024-01-11T10:51:05;101003.09;;;3.40;54.79
77979;BME280;67169;50.268;8.694;2024-01-11T10:53:42;101022.81;;;3.60;54.71
77979;BME280;67169;50.268;8.694;2024-01-11T10:56:11;101025.22;;;3.36;54.40
77979;BME280;67169;50.268;8.694;2024-01-11T10:58:41;101024.19;;;4.11;54.13
77979;BME280;67169;50.268;8.694;2024-01-11T11:01:08;101028.00;;;4.42;54.13
77979;BME280;67169;50.268;8.694;2024-01-11T11:03:36;100997.72;;;4.29;53.45
77979;BME280;67169;50.268;8.694;2024-01-11T11:06:04;101028.09;;;4.56;53.00
77979;BME280;67169;50.268;8.694;2024-01-11T11:08:32;101020.91;;;4.46;52.71
77979;BME280;67169;50.268;8.694;2024-01-11T11:11:03;101013.75;;;4.39;52.42
77979;BME280;67169;50.268;8.694;2024-01-11T11:13:32;100986.38;;;4.64;52.16
77979;BME280;67169;50.268;8.694;2024-01-11T11:16:02;100985.63;;;4.87;51.27
77979;BME280;67169;50.268;8.694;2024-01-11T11:18:29;100978.56;;;4.98;50.33
77979;BME280;67169;50.268;8.694;2024-01-11T11:20:56;100993.66;;;4.97;50.13
77979;BME280;67169;50.268;8.694;2024-01-11T11:23:24;100992.81;;;5.03;49.99
77979;BME280;67169;50.268;8.694;2024-01-11T11:25:54;100957.09;;;4.67;50.41
77979;BME280;67169;50.268;8.694;2024-01-11T11:28:22;100998.97;;;4.94;50.52
77979;BME280;67169;50.268;8.694;2024-01-11T11:30:49;100994.69;;;5.30;49.99
77979;BME280;67169;50.268;8.694;2024-01-11T11:33:19;100994.75;;;5.53;49.68
77979;BME280;67169;50.268;8.694;2024-01-11T11:35:47;100993.88;;;5.62;48.65
77979;BME280;67169;50.268;8.694;2024-01-11T11:38:17;100992.19;;;5.93;48.11
77979;BME280;67169;50.268;8.694;2024-01-11T11:40:46;100898.66;;;5.33;48.08
77979;BME280;67169;50.268;8.694;2024-01-11T11:43:15;100988.63;;;6.20;47.44
77979;BME280;67169;50.268;8.694;2024-01-11T11:45:42;100971.66;;;6.42;46.26
77979;BME280;67169;50.268;8.694;2024-01-11T11:51:15;100977.03;;;6.10;46.00
77979;BME280;67169;50.268;8.694;2024-01-11T11:53:42;100975.22;;;5.72;46.88
77979;BME280;67169;50.268;8.694;2024-01-11T11:56:09;100985.00;;;5.81;47.48
77979;BME280;67169;50.268;8.694;2024-01-11T11:58:38;100997.50;;;5.93;48.31
77979;BME280;67169;50.268;8.694;2024-01-11T12:01:05;100985.03;;;6.12;48.08
77979;BME280;67169;50.268;8.694;2024-01-11T12:03:33;100983.25;;;6.22;47.04
77979;BME280;67169;50.268;8.694;2024-01-11T12:06:01;100964.56;;;6.15;45.46
77979;BME280;67169;50.268;8.694;2024-01-11T12:08:29;100958.09;;;7.01;45.70
77979;BME280;67169;50.268;8.694;2024-01-11T12:10:56;100945.47;;;7.29;44.81
77979;BME280;67169;50.268;8.694;2024-01-11T12:13:23;100932.16;;;7.23;43.87
77979;BME280;67169;50.268;8.694;2024-01-11T12:15:50;100949.81;;;7.54;43.71
77979;BME280;67169;50.268;8.694;2024-01-11T12:18:17;100936.41;;;7.57;43.14
77979;BME280;67169;50.268;8.694;2024-01-11T12:20:44;100929.16;;;7.67;43.35
77979;BME280;67169;50.268;8.694;2024-01-11T12:23:11;100933.50;;;7.85;43.10
77979;BME280;67169;50.268;8.694;2024-01-11T12:25:41;100940.81;;;7.61;43.29
77979;BME280;67169;50.268;8.694;2024-01-11T12:28:08;100940.41;;;8.14;42.91
77979;BME280;67169;50.268;8.694;2024-01-11T12:30:35;100936.19;;;7.80;43.47
77979;BME280;67169;50.268;8.694;2024-01-11T12:33:02;100942.72;;;7.44;43.64
77979;BME280;67169;50.268;8.694;2024-01-11T12:35:30;100890.34;;;7.03;44.26
77979;BME280;67169;50.268;8.694;2024-01-11T12:37:58;100938.41;;;7.19;44.46
77979;BME280;67169;50.268;8.694;2024-01-11T12:40:25;100927.72;;;7.17;44.82
77979;BME280;67169;50.268;8.694;2024-01-11T12:42:54;100926.53;;;7.63;44.88
77979;BME280;67169;50.268;8.694;2024-01-11T12:45:24;100930.78;;;7.90;44.64
77979;BME280;67169;50.268;8.694;2024-01-11T12:47:52;100928.75;;;8.15;44.26
77979;BME280;67169;50.268;8.694;2024-01-11T12:50:20;100921.97;;;7.74;44.40
77979;BME280;67169;50.268;8.694;2024-01-11T12:53:04;100920.16;;;7.79;43.94
77979;BME280;67169;50.268;8.694;2024-01-11T12:55:31;100915.34;;;8.19;42.24